Que Sera — FMBG — position and weather

sailwx.info

Track history (hours):
 
Tides and Currents Weather Stations Pressure Air Temp Water Temp Dewpoint Dewpoint Depression Visibility Wind Speed Wind Dir Waves Ship Positions

Que Sera

Last reported at 2017-Aug-17 13:10 UTC. Time now 2017-Oct-23 06:32 UTC.
Position N 48°23' W 004°24'.
Warning: this ship's position is months out of date.

Length 16 m.

Type: Sailing vessel. MMSI: 228195600.

Date/timePositionNaut miles runAvg speedWind from/ knotsBaromVisibWave heightAir tempDewpointWater temp
2017-Aug-17 13:10N 48°23' W 004°24'0 0.0
2017-Aug-17 12:58N 48°23' W 004°24'0 0.0
2017-Aug-17 12:28N 48°23' W 004°24'0 0.0
2017-Aug-17 11:58N 48°23' W 004°24'0 0.0
2017-Aug-17 11:28N 48°23' W 004°24'1 2.4
2017-Aug-17 11:00N 48°23' W 004°26'2 3.9
2017-Aug-17 10:28N 48°23' W 004°29'0 0.0
2017-Aug-16 10:21N 48°23' W 004°29'0 0.4
2017-Aug-16 10:00N 48°23' W 004°29'2 3.7
2017-Aug-16 09:30N 48°21' W 004°31'3 6.9
2017-Aug-16 09:00N 48°20' W 004°36'3 6.8
2017-Aug-16 08:30N 48°18' W 004°41'4 7.6
2017-Aug-16 08:00N 48°17' W 004°46'4 7.3
2017-Aug-16 07:30N 48°16' W 004°51'3 6.6
2017-Aug-16 07:00N 48°15' W 004°56'7 6.0
2017-Aug-16 05:53N 48°12' W 005°05'6 6.2
2017-Aug-16 04:58N 48°09' W 005°12'7 6.2
2017-Aug-16 03:53N 48°05' W 005°21'  
Track history (hours):
 
Tides and Currents Weather Stations Pressure Air Temp Water Temp Dewpoint Dewpoint Depression Visibility Wind Speed Wind Dir Waves Ship Positions

Que Sera

Last reported at 2017-Aug-17 13:10 UTC. Time now 2017-Oct-23 06:32 UTC.
Position N 48°23' W 004°24'.
Warning: this ship's position is months out of date.

Length 16 m.

Type: Sailing vessel. MMSI: 228195600.

Date/timePositionNaut miles runAvg speedWind from/ knotsBaromVisibWave heightAir tempDewpointWater temp
2017-Aug-17 13:10N 48°23' W 004°24'0 0.0
2017-Aug-17 12:58N 48°23' W 004°24'0 0.0
2017-Aug-17 12:28N 48°23' W 004°24'0 0.0
2017-Aug-17 11:58N 48°23' W 004°24'0 0.0
2017-Aug-17 11:28N 48°23' W 004°24'1 2.4
2017-Aug-17 11:00N 48°23' W 004°26'2 3.9
2017-Aug-17 10:28N 48°23' W 004°29'0 0.0
2017-Aug-16 10:21N 48°23' W 004°29'0 0.4
2017-Aug-16 10:00N 48°23' W 004°29'2 3.7
2017-Aug-16 09:30N 48°21' W 004°31'3 6.9
2017-Aug-16 09:00N 48°20' W 004°36'3 6.8
2017-Aug-16 08:30N 48°18' W 004°41'4 7.6
2017-Aug-16 08:00N 48°17' W 004°46'4 7.3
2017-Aug-16 07:30N 48°16' W 004°51'3 6.6
2017-Aug-16 07:00N 48°15' W 004°56'7 6.0
2017-Aug-16 05:53N 48°12' W 005°05'6 6.2
2017-Aug-16 04:58N 48°09' W 005°12'7 6.2
2017-Aug-16 03:53N 48°05' W 005°21'  

Dump ship's entire track history